Time;durP1;ratioP1;P1;durP2;ratioP2;P2;SDS_P1;SDS_P2;PMS_P1;PMS_P2;Temp;Humidity;BMP_temperature;BMP_pressure;BME280_temperature;BME280_humidity;BME280_pressure;Samples;Min_cycle;Max_cycle;Signal;HPM_P1;HPM_P2
2022/02/15 00:00:35;;;;;;;;;;;5.90;94.70;;;;;;5077452;28;19908;-79
2022/02/15 00:03:01;;;;;;;;;;;5.90;94.70;;;;;;5078517;28;19934;-79
2022/02/15 00:05:27;;;;;;;;;;;5.90;94.80;;;;;;5062338;28;19916;-79
2022/02/15 00:07:52;;;;;;;;;;;5.90;94.90;;;;;;5058922;28;20335;-79
2022/02/15 00:10:18;;;;;;;;;;;5.90;95.00;;;;;;5056879;28;19991;-79
2022/02/15 00:12:44;;;;;;;;;;;5.90;95.00;;;;;;5063716;28;20279;-79
2022/02/15 00:15:11;;;;;;;;;;;5.80;95.00;;;;;;5078293;28;19913;-79
2022/02/15 00:17:38;;;;;;;;;;;5.80;94.90;;;;;;5077461;28;19915;-79
2022/02/15 00:20:05;;;;;;;;;;;5.70;94.90;;;;;;5078193;28;20007;-79
2022/02/15 00:22:31;;;;;;;;;;;5.70;94.90;;;;;;5077304;28;20022;-78
2022/02/15 00:24:56;;;;;;;;;;;5.70;95.00;;;;;;5078096;28;20520;-79
2022/02/15 00:27:22;;;;;;;;;;;5.70;95.00;;;;;;5078270;28;19940;-79
2022/02/15 00:29:48;;;;;;;;;;;5.70;94.90;;;;;;5078046;28;19909;-79
2022/02/15 00:32:13;;;;;;;;;;;5.60;94.90;;;;;;5076635;28;19995;-79
2022/02/15 00:34:39;;;;;;;;;;;5.60;95.00;;;;;;5077880;28;19974;-79
2022/02/15 00:37:04;;;;;;;;;;;5.60;95.00;;;;;;5077063;28;19909;-79
2022/02/15 00:39:30;;;;;;;;;;;5.60;95.00;;;;;;5074043;28;19908;-79
2022/02/15 00:41:56;;;;;;;;;;;5.50;95.00;;;;;;5078404;28;19948;-79
2022/02/15 00:44:22;;;;;;;;;;;5.50;95.00;;;;;;5076387;28;19925;-79
2022/02/15 00:46:48;;;;;;;;;;;5.50;95.00;;;;;;5076989;28;19908;-79
2022/02/15 00:49:13;;;;;;;;;;;5.50;95.10;;;;;;5077906;28;19969;-79
2022/02/15 00:51:39;;;;;;;;;;;5.50;95.10;;;;;;5078216;28;19920;-79
2022/02/15 00:54:05;;;;;;;;;;;5.40;95.00;;;;;;5075297;28;19920;-79
2022/02/15 00:56:30;;;;;;;;;;;5.50;95.10;;;;;;5077954;28;19944;-79
2022/02/15 00:58:56;;;;;;;;;;;5.40;95.00;;;;;;5077787;28;19908;-79
2022/02/15 01:01:22;;;;;;;;;;;5.30;94.80;;;;;;5077901;28;19958;-79
2022/02/15 01:03:48;;;;;;;;;;;5.30;94.90;;;;;;5076320;28;19909;-79
2022/02/15 01:06:14;;;;;;;;;;;5.30;95.00;;;;;;5077786;28;19908;-79
2022/02/15 01:08:42;;;;;;;;;;;5.30;95.10;;;;;;5077396;28;19912;-79
2022/02/15 01:11:14;;;;;;;;;;;5.30;95.10;;;;;;5069694;28;20321;-79
2022/02/15 01:13:39;;;;;;;;;;;5.30;95.20;;;;;;5071582;28;19939;-79
2022/02/15 01:16:06;;;;;;;;;;;5.30;95.20;;;;;;5076618;28;19915;-79
2022/02/15 01:18:32;;;;;;;;;;;5.30;95.20;;;;;;5076177;28;19909;-79
2022/02/15 01:20:57;;;;;;;;;;;5.20;95.20;;;;;;5076553;28;19915;-79
2022/02/15 01:23:23;;;;;;;;;;;5.20;95.30;;;;;;5077241;28;19909;-79
2022/02/15 01:25:49;;;;;;;;;;;5.30;95.50;;;;;;5077716;28;19919;-79
2022/02/15 01:28:15;;;;;;;;;;;5.30;95.60;;;;;;5077442;28;19912;-78
2022/02/15 01:30:41;;;;;;;;;;;5.30;95.70;;;;;;5076253;28;19953;-79
2022/02/15 01:33:06;;;;;;;;;;;5.30;95.70;;;;;;5077301;28;20011;-79
2022/02/15 01:35:32;;;;;;;;;;;5.30;95.80;;;;;;5077797;28;19913;-79
2022/02/15 01:37:58;;;;;;;;;;;5.30;95.80;;;;;;5077239;28;19923;-79
2022/02/15 01:40:24;;;;;;;;;;;5.40;95.80;;;;;;5073764;28;20264;-79
2022/02/15 01:42:49;;;;;;;;;;;5.30;95.70;;;;;;5077302;28;19965;-79
2022/02/15 01:45:17;;;;;;;;;;;5.30;95.60;;;;;;5077214;28;19983;-78
2022/02/15 01:47:47;;;;;;;;;;;5.40;95.70;;;;;;5075925;28;19931;-79
2022/02/15 01:50:13;;;;;;;;;;;5.40;95.60;;;;;;5077762;28;19916;-79
2022/02/15 01:52:39;;;;;;;;;;;5.40;95.60;;;;;;5077102;28;20028;-79
2022/02/15 01:55:07;;;;;;;;;;;5.40;95.50;;;;;;5076996;28;19952;-78
2022/02/15 01:57:32;;;;;;;;;;;5.30;95.30;;;;;;5077143;28;19908;-78
2022/02/15 01:59:58;;;;;;;;;;;5.30;95.30;;;;;;5077581;28;20490;-78
2022/02/15 02:02:25;;;;;;;;;;;5.30;95.30;;;;;;5077027;28;19995;-78
2022/02/15 02:07:35;;;;;;;;;;;5.30;95.20;;;;;;5067595;28;19916;-78
2022/02/15 02:10:01;;;;;;;;;;;5.20;95.20;;;;;;5079103;28;19909;-79
2022/02/15 02:12:26;;;;;;;;;;;5.20;95.10;;;;;;5079313;28;19959;-79
2022/02/15 02:15:14;;;;;;;;;;;5.20;95.10;;;;;;5079580;28;19912;-78
2022/02/15 02:17:40;;;;;;;;;;;5.20;95.10;;;;;;5068456;28;19913;-78
2022/02/15 02:20:06;;;;;;;;;;;5.20;95.10;;;;;;5080460;28;19962;-78
2022/02/15 02:22:32;;;;;;;;;;;5.10;95.00;;;;;;5080693;28;19909;-78
2022/02/15 02:24:58;;;;;;;;;;;5.10;95.00;;;;;;5080033;28;19958;-79
2022/02/15 02:27:28;;;;;;;;;;;5.10;95.00;;;;;;5079258;28;19908;-79
2022/02/15 02:29:54;;;;;;;;;;;5.10;95.00;;;;;;5080348;28;20402;-79
2022/02/15 02:32:23;;;;;;;;;;;5.00;95.00;;;;;;5080288;28;19938;-79
2022/02/15 02:34:49;;;;;;;;;;;5.10;95.00;;;;;;5080125;28;20011;-79
2022/02/15 02:37:15;;;;;;;;;;;5.10;95.10;;;;;;5080490;28;19930;-78
2022/02/15 02:39:45;;;;;;;;;;;5.00;95.10;;;;;;5076971;28;20329;-77
2022/02/15 02:42:11;;;;;;;;;;;5.00;95.10;;;;;;5080481;28;20256;-78
2022/02/15 02:44:37;;;;;;;;;;;5.00;95.10;;;;;;5078797;28;20011;-78
2022/02/15 02:47:03;;;;;;;;;;;5.00;95.10;;;;;;5080206;28;19931;-78
2022/02/15 02:49:29;;;;;;;;;;;4.90;95.10;;;;;;5080005;28;19919;-78
2022/02/15 02:51:55;;;;;;;;;;;4.90;95.10;;;;;;5080142;28;19909;-78
2022/02/15 02:54:20;;;;;;;;;;;4.80;95.10;;;;;;5079360;28;19938;-78
2022/02/15 02:56:46;;;;;;;;;;;4.80;95.10;;;;;;5080221;28;19940;-78
2022/02/15 02:59:12;;;;;;;;;;;4.80;95.10;;;;;;5079854;28;19916;-78
2022/02/15 03:01:37;;;;;;;;;;;4.80;95.20;;;;;;5079043;28;19912;-78
2022/02/15 03:04:03;;;;;;;;;;;4.80;95.20;;;;;;5079746;28;19948;-78
2022/02/15 03:06:28;;;;;;;;;;;4.80;95.30;;;;;;5078552;28;19962;-78
2022/02/15 03:08:54;;;;;;;;;;;4.80;95.40;;;;;;5079341;28;19909;-78
2022/02/15 03:11:20;;;;;;;;;;;4.80;95.40;;;;;;5071531;28;19915;-77
2022/02/15 03:13:45;;;;;;;;;;;4.80;95.40;;;;;;5074455;28;19919;-77
2022/02/15 03:16:11;;;;;;;;;;;4.80;95.40;;;;;;5079308;28;19951;-77
2022/02/15 03:18:36;;;;;;;;;;;4.80;95.50;;;;;;5079415;28;19908;-77
2022/02/15 03:21:02;;;;;;;;;;;4.80;95.50;;;;;;5079682;28;19915;-77
2022/02/15 03:23:28;;;;;;;;;;;4.80;95.60;;;;;;5079092;28;19932;-77
2022/02/15 03:25:53;;;;;;;;;;;4.80;95.70;;;;;;5079438;28;19917;-77
2022/02/15 03:28:19;;;;;;;;;;;4.80;95.60;;;;;;5079230;28;19920;-77
2022/02/15 03:30:45;;;;;;;;;;;4.80;95.50;;;;;;5079550;28;20421;-77
2022/02/15 03:33:10;;;;;;;;;;;4.90;95.50;;;;;;5079077;28;19923;-77
2022/02/15 03:35:36;;;;;;;;;;;4.90;95.60;;;;;;5079319;28;19920;-77
2022/02/15 03:38:01;;;;;;;;;;;4.90;95.60;;;;;;5079063;28;19915;-77
2022/02/15 03:43:04;;;;;;;;;;;5.00;95.60;;;;;;5074986;28;19908;-77
2022/02/15 03:43:13;;;;;;;;;;;5.00;95.40;;;;;;5078874;28;19909;-77
2022/02/15 03:45:39;;;;;;;;;;;5.10;95.40;;;;;;5078938;28;19921;-77
2022/02/15 03:48:05;;;;;;;;;;;5.10;95.50;;;;;;5079113;28;19959;-77
2022/02/15 03:50:30;;;;;;;;;;;5.10;95.40;;;;;;5079032;28;20448;-77
2022/02/15 03:52:56;;;;;;;;;;;5.10;95.50;;;;;;5078746;28;19908;-77
2022/02/15 03:55:22;;;;;;;;;;;5.10;95.40;;;;;;5077482;28;19916;-77
2022/02/15 03:57:48;;;;;;;;;;;5.10;95.40;;;;;;5077339;28;19908;-77
2022/02/15 04:00:14;;;;;;;;;;;5.00;95.30;;;;;;5079061;28;19957;-77
2022/02/15 04:02:39;;;;;;;;;;;5.10;95.30;;;;;;5078509;28;20287;-77
2022/02/15 04:05:05;;;;;;;;;;;5.00;95.30;;;;;;5077296;28;19909;-77
2022/02/15 04:07:31;;;;;;;;;;;5.00;95.30;;;;;;5077138;28;20363;-76
2022/02/15 04:09:56;;;;;;;;;;;5.00;95.40;;;;;;5078327;28;19913;-77
2022/02/15 04:12:22;;;;;;;;;;;5.10;95.30;;;;;;5064759;28;20003;-77
2022/02/15 04:14:48;;;;;;;;;;;5.10;95.30;;;;;;5078517;28;19918;-77
2022/02/15 04:17:14;;;;;;;;;;;5.10;95.50;;;;;;5077016;28;19991;-77
2022/02/15 04:19:40;;;;;;;;;;;5.20;95.60;;;;;;5078393;28;19939;-77
2022/02/15 04:22:06;;;;;;;;;;;5.20;95.70;;;;;;5078138;28;19915;-77
2022/02/15 04:24:32;;;;;;;;;;;5.20;95.70;;;;;;5078036;28;19951;-77
2022/02/15 04:26:58;;;;;;;;;;;5.20;95.50;;;;;;5077585;28;20364;-77
2022/02/15 04:29:26;;;;;;;;;;;5.30;95.60;;;;;;5078235;28;19938;-77
2022/02/15 04:31:52;;;;;;;;;;;5.20;95.60;;;;;;5077978;28;20271;-77
2022/02/15 04:34:17;;;;;;;;;;;5.30;95.70;;;;;;5078160;28;19913;-77
2022/02/15 04:36:43;;;;;;;;;;;5.30;95.60;;;;;;5077888;28;19915;-78
2022/02/15 04:39:09;;;;;;;;;;;5.20;95.50;;;;;;5076241;28;19915;-77
2022/02/15 04:41:34;;;;;;;;;;;5.20;95.30;;;;;;5076441;28;19916;-77
2022/02/15 04:44:00;;;;;;;;;;;5.20;95.20;;;;;;5076836;28;20011;-77
2022/02/15 04:46:25;;;;;;;;;;;5.20;95.00;;;;;;5077947;28;19919;-77
2022/02/15 04:48:51;;;;;;;;;;;5.20;94.90;;;;;;5078080;28;19909;-78
2022/02/15 04:51:17;;;;;;;;;;;5.10;94.80;;;;;;5077825;28;19915;-77
2022/02/15 04:53:42;;;;;;;;;;;5.10;94.90;;;;;;5077662;28;19913;-77
2022/02/15 04:56:08;;;;;;;;;;;5.10;95.00;;;;;;5077719;28;20398;-78
2022/02/15 04:58:33;;;;;;;;;;;5.10;94.90;;;;;;5077011;28;19916;-78
2022/02/15 05:00:59;;;;;;;;;;;5.10;94.80;;;;;;5076653;28;19920;-78
2022/02/15 05:03:25;;;;;;;;;;;5.10;94.70;;;;;;5077904;28;19955;-78
2022/02/15 05:05:50;;;;;;;;;;;5.10;94.70;;;;;;5076586;28;19909;-78
2022/02/15 05:08:16;;;;;;;;;;;5.00;94.70;;;;;;5076451;28;20007;-78
2022/02/15 05:10:42;;;;;;;;;;;5.00;94.60;;;;;;5074392;28;19908;-78
2022/02/15 05:13:11;;;;;;;;;;;5.00;94.50;;;;;;5067493;28;19908;-78
2022/02/15 05:15:37;;;;;;;;;;;5.00;94.50;;;;;;5077426;28;19935;-78
2022/02/15 05:18:03;;;;;;;;;;;5.00;94.50;;;;;;5077738;28;20287;-78
2022/02/15 05:20:29;;;;;;;;;;;5.00;94.60;;;;;;5077562;28;19908;-78
2022/02/15 05:22:54;;;;;;;;;;;5.00;94.70;;;;;;5077512;28;20290;-77
2022/02/15 05:25:20;;;;;;;;;;;5.00;94.60;;;;;;5076005;28;20402;-78
2022/02/15 05:27:46;;;;;;;;;;;5.00;94.50;;;;;;5077809;28;19960;-78
2022/02/15 05:30:11;;;;;;;;;;;5.10;94.60;;;;;;5076438;28;19909;-78
2022/02/15 05:32:40;;;;;;;;;;;5.10;95.00;;;;;;5077559;28;20260;-78
2022/02/15 05:35:07;;;;;;;;;;;5.10;95.20;;;;;;5075935;28;19917;-78
2022/02/15 05:37:32;;;;;;;;;;;5.20;95.50;;;;;;5077528;28;19908;-78
2022/02/15 05:39:58;;;;;;;;;;;5.20;95.60;;;;;;5075812;28;19986;-78
2022/02/15 05:42:24;;;;;;;;;;;5.30;95.70;;;;;;5081302;28;19908;-78
2022/02/15 05:44:49;;;;;;;;;;;5.30;95.80;;;;;;5081180;28;19924;-78
2022/02/15 05:47:15;;;;;;;;;;;5.40;95.80;;;;;;5081309;28;19934;-78
2022/02/15 05:52:25;;;;;;;;;;;5.40;95.40;;;;;;5081033;28;19947;-78
2022/02/15 05:54:50;;;;;;;;;;;5.40;95.50;;;;;;5079736;28;19912;-78
2022/02/15 05:57:16;;;;;;;;;;;5.40;95.50;;;;;;5081220;28;19930;-78
2022/02/15 05:59:42;;;;;;;;;;;5.40;95.60;;;;;;5081369;28;19908;-78
2022/02/15 06:02:08;;;;;;;;;;;5.50;95.70;;;;;;5081151;28;20005;-78
2022/02/15 06:04:34;;;;;;;;;;;5.50;95.80;;;;;;5079833;28;19908;-79
2022/02/15 06:06:59;;;;;;;;;;;5.50;95.90;;;;;;5079743;28;20408;-81
2022/02/15 06:09:25;;;;;;;;;;;5.50;96.10;;;;;;5079633;28;19942;-76
2022/02/15 06:11:51;;;;;;;;;;;5.60;96.30;;;;;;5068278;28;20318;-78
2022/02/15 06:14:16;;;;;;;;;;;5.60;96.30;;;;;;5079880;28;19913;-81
2022/02/15 06:16:42;;;;;;;;;;;5.60;96.20;;;;;;5081098;28;19908;-80
2022/02/15 06:19:08;;;;;;;;;;;5.60;96.00;;;;;;5080581;28;19908;-80
2022/02/15 06:21:33;;;;;;;;;;;5.60;96.10;;;;;;5080794;28;19909;-80
2022/02/15 06:24:00;;;;;;;;;;;5.60;96.30;;;;;;5080079;28;19912;-80
2022/02/15 06:26:26;;;;;;;;;;;5.60;96.40;;;;;;5080763;28;19909;-80
2022/02/15 06:28:52;;;;;;;;;;;5.60;96.30;;;;;;5080514;28;19908;-84
2022/02/15 06:31:17;;;;;;;;;;;5.60;96.10;;;;;;5080442;28;19909;-81
2022/02/15 06:33:43;;;;;;;;;;;5.60;96.10;;;;;;5080252;28;20314;-76
2022/02/15 06:36:09;;;;;;;;;;;5.60;96.10;;;;;;5080479;28;19962;-76
2022/02/15 06:38:35;;;;;;;;;;;5.60;96.10;;;;;;5080171;28;19915;-78
2022/02/15 06:41:01;;;;;;;;;;;5.70;96.20;;;;;;5076626;28;19909;-77
2022/02/15 06:43:27;;;;;;;;;;;5.60;96.00;;;;;;5078965;28;20003;-72
2022/02/15 06:45:52;;;;;;;;;;;5.60;95.80;;;;;;5079854;28;19924;-74
2022/02/15 06:48:18;;;;;;;;;;;5.60;95.70;;;;;;5080152;28;19966;-75
2022/02/15 06:50:44;;;;;;;;;;;5.60;95.80;;;;;;5078978;28;19982;-74
2022/02/15 06:53:10;;;;;;;;;;;5.50;95.50;;;;;;5078818;28;19908;-76
2022/02/15 06:55:35;;;;;;;;;;;5.50;95.40;;;;;;5079787;28;20360;-75
2022/02/15 06:58:01;;;;;;;;;;;5.40;95.50;;;;;;5078737;28;19990;-75
2022/02/15 07:00:27;;;;;;;;;;;5.40;95.60;;;;;;5079830;28;19908;-75
2022/02/15 07:02:52;;;;;;;;;;;5.40;95.60;;;;;;5078740;28;20348;-76
2022/02/15 07:05:18;;;;;;;;;;;5.40;95.70;;;;;;5065087;28;19931;-75
2022/02/15 07:07:45;;;;;;;;;;;5.40;95.70;;;;;;5058936;28;19916;-74
2022/02/15 07:10:12;;;;;;;;;;;5.30;95.50;;;;;;5059366;28;19935;-74
2022/02/15 07:12:38;;;;;;;;;;;5.30;96.10;;;;;;5065047;28;19913;-75
2022/02/15 07:15:04;;;;;;;;;;;5.40;96.00;;;;;;5079605;28;19912;-75
2022/02/15 07:17:34;;;;;;;;;;;5.40;96.20;;;;;;5079501;28;20050;-75
2022/02/15 07:19:59;;;;;;;;;;;5.40;96.20;;;;;;5079371;28;19908;-75
2022/02/15 07:22:25;;;;;;;;;;;5.40;96.50;;;;;;5078261;28;19915;-75
2022/02/15 07:24:50;;;;;;;;;;;5.50;96.50;;;;;;5079157;28;20471;-75
2022/02/15 07:27:16;;;;;;;;;;;5.50;96.50;;;;;;5079470;28;19931;-75
2022/02/15 07:29:42;;;;;;;;;;;5.60;96.70;;;;;;5079394;28;19908;-75
2022/02/15 07:32:07;;;;;;;;;;;5.70;96.90;;;;;;5079211;28;20405;-75
2022/02/15 07:34:33;;;;;;;;;;;5.80;97.30;;;;;;5079185;28;19913;-75
2022/02/15 07:36:59;;;;;;;;;;;5.90;97.50;;;;;;5079156;28;19947;-75
2022/02/15 07:39:24;;;;;;;;;;;6.00;97.60;;;;;;5075100;28;19967;-75
2022/02/15 07:41:50;;;;;;;;;;;6.10;97.80;;;;;;5078642;28;19995;-76
2022/02/15 07:44:16;;;;;;;;;;;6.20;97.90;;;;;;5078860;28;19935;-75
2022/02/15 07:46:44;;;;;;;;;;;6.20;97.80;;;;;;5065780;28;20275;-75
2022/02/15 07:49:10;;;;;;;;;;;6.30;97.80;;;;;;5078967;28;19947;-75
2022/02/15 07:51:36;;;;;;;;;;;6.40;97.80;;;;;;5079334;28;19908;-75
2022/02/15 07:54:02;;;;;;;;;;;6.50;97.80;;;;;;5078259;28;19912;-75
2022/02/15 07:56:27;;;;;;;;;;;6.60;97.80;;;;;;5079379;28;19914;-75
2022/02/15 07:58:53;;;;;;;;;;;6.60;97.70;;;;;;5078653;28;19917;-75
2022/02/15 08:01:19;;;;;;;;;;;6.70;97.80;;;;;;5077339;28;20003;-75
2022/02/15 08:03:44;;;;;;;;;;;6.90;98.10;;;;;;5078630;28;19948;-75
2022/02/15 08:06:10;;;;;;;;;;;6.90;98.00;;;;;;5078770;28;19947;-75
2022/02/15 08:08:35;;;;;;;;;;;7.00;98.00;;;;;;5078286;28;20363;-76
2022/02/15 08:11:01;;;;;;;;;;;7.10;98.10;;;;;;5072811;28;20322;-76
2022/02/15 08:13:34;;;;;;;;;;;7.10;98.00;;;;;;5071075;28;19931;-75
2022/02/15 08:15:59;;;;;;;;;;;7.20;98.00;;;;;;5065519;28;19920;-75
2022/02/15 08:18:26;;;;;;;;;;;7.20;97.90;;;;;;5078430;28;20371;-75
2022/02/15 08:20:51;;;;;;;;;;;7.30;97.90;;;;;;5078507;28;20387;-75
2022/02/15 08:23:17;;;;;;;;;;;7.40;98.10;;;;;;5078113;28;19909;-76
2022/02/15 08:25:43;;;;;;;;;;;7.50;97.90;;;;;;5078270;28;19909;-75
2022/02/15 08:28:12;;;;;;;;;;;7.60;98.00;;;;;;5077192;28;20419;-76
2022/02/15 08:30:40;;;;;;;;;;;7.60;97.80;;;;;;5078303;28;19913;-76
2022/02/15 08:33:05;;;;;;;;;;;7.70;97.80;;;;;;5078051;28;19915;-76
2022/02/15 08:35:31;;;;;;;;;;;7.70;97.80;;;;;;5078363;28;20431;-76
2022/02/15 08:37:57;;;;;;;;;;;7.80;97.70;;;;;;5076445;28;19912;-76
2022/02/15 08:40:22;;;;;;;;;;;7.80;97.70;;;;;;5074087;28;19931;-76
2022/02/15 08:42:48;;;;;;;;;;;7.80;97.70;;;;;;5077904;28;19934;-76
2022/02/15 08:45:14;;;;;;;;;;;7.80;97.60;;;;;;5076610;28;20007;-76
2022/02/15 08:47:40;;;;;;;;;;;7.90;97.70;;;;;;5076540;28;19908;-76
2022/02/15 08:50:08;;;;;;;;;;;7.90;97.70;;;;;;5076670;28;19908;-76
2022/02/15 08:52:36;;;;;;;;;;;7.90;97.70;;;;;;5077725;28;19908;-75
2022/02/15 08:55:02;;;;;;;;;;;8.00;97.60;;;;;;5077692;28;19927;-76
2022/02/15 08:57:28;;;;;;;;;;;8.00;97.60;;;;;;5077808;28;19908;-75
2022/02/15 08:59:53;;;;;;;;;;;8.00;97.50;;;;;;5078042;28;19959;-75
2022/02/15 09:02:20;;;;;;;;;;;8.00;97.50;;;;;;5077614;28;19927;-75
2022/02/15 09:04:45;;;;;;;;;;;8.00;97.40;;;;;;5078051;28;20402;-75
2022/02/15 09:07:11;;;;;;;;;;;8.00;97.40;;;;;;5077603;28;19909;-76
2022/02/15 09:09:37;;;;;;;;;;;8.00;97.40;;;;;;5076083;28;19931;-76
2022/02/15 09:12:03;;;;;;;;;;;8.00;97.40;;;;;;5073540;28;19909;-75
2022/02/15 09:14:32;;;;;;;;;;;8.10;97.40;;;;;;5082121;28;19962;-75
2022/02/15 09:16:59;;;;;;;;;;;8.20;97.40;;;;;;5084138;28;19909;-76
2022/02/15 09:19:25;;;;;;;;;;;8.20;97.40;;;;;;5084311;28;19908;-76
2022/02/15 09:21:51;;;;;;;;;;;8.30;97.40;;;;;;5084237;28;19908;-75
2022/02/15 09:24:17;;;;;;;;;;;8.50;97.50;;;;;;5082874;28;19908;-75
2022/02/15 09:26:43;;;;;;;;;;;8.60;97.50;;;;;;5084229;28;19908;-75
2022/02/15 09:29:12;;;;;;;;;;;8.70;97.40;;;;;;5083379;28;19908;-76
2022/02/15 09:31:40;;;;;;;;;;;8.80;97.20;;;;;;5084206;28;19936;-76
2022/02/15 09:34:07;;;;;;;;;;;8.90;97.10;;;;;;5082834;28;19955;-76
2022/02/15 09:36:33;;;;;;;;;;;9.00;97.00;;;;;;5084109;28;19965;-76
2022/02/15 09:38:59;;;;;;;;;;;9.00;96.90;;;;;;5082400;28;19915;-76
2022/02/15 09:41:24;;;;;;;;;;;9.00;96.70;;;;;;5080140;28;19908;-76
2022/02/15 09:43:50;;;;;;;;;;;9.10;96.70;;;;;;5083927;28;19908;-76
2022/02/15 09:46:16;;;;;;;;;;;9.10;96.70;;;;;;5084016;28;19920;-75
2022/02/15 09:48:43;;;;;;;;;;;9.20;96.60;;;;;;5084180;28;19908;-76
2022/02/15 09:51:09;;;;;;;;;;;9.20;96.60;;;;;;5083927;28;19909;-76
2022/02/15 09:53:35;;;;;;;;;;;9.20;96.60;;;;;;5083853;28;19951;-76
2022/02/15 09:56:01;;;;;;;;;;;9.30;96.60;;;;;;5083685;28;19919;-76
2022/02/15 09:58:26;;;;;;;;;;;9.40;96.60;;;;;;5083974;28;20264;-76
2022/02/15 10:00:53;;;;;;;;;;;9.40;96.50;;;;;;5083820;28;20353;-76
2022/02/15 10:03:19;;;;;;;;;;;9.50;96.50;;;;;;5084020;28;19999;-76
2022/02/15 10:05:48;;;;;;;;;;;9.50;96.40;;;;;;5083709;28;19955;-76
2022/02/15 10:08:14;;;;;;;;;;;9.60;96.30;;;;;;5083777;28;19915;-76
2022/02/15 10:10:40;;;;;;;;;;;9.60;96.20;;;;;;5080757;28;20023;-76
2022/02/15 10:13:09;;;;;;;;;;;9.70;96.20;;;;;;5073473;28;20366;-76
2022/02/15 10:15:37;;;;;;;;;;;9.70;96.20;;;;;;5083619;28;20367;-76
2022/02/15 10:18:05;;;;;;;;;;;9.80;96.20;;;;;;5083772;28;19924;-76
2022/02/15 10:20:30;;;;;;;;;;;9.90;96.20;;;;;;5083647;28;19909;-76
2022/02/15 10:23:12;;;;;;;;;;;10.00;96.20;;;;;;5083470;28;19912;-76
2022/02/15 10:25:38;;;;;;;;;;;10.20;96.10;;;;;;5082090;28;19913;-76
2022/02/15 10:28:14;;;;;;;;;;;10.30;96.00;;;;;;5080592;28;19908;-76
2022/02/15 10:30:43;;;;;;;;;;;10.30;95.80;;;;;;5080591;28;19970;-76
2022/02/15 10:33:09;;;;;;;;;;;10.40;95.60;;;;;;5080337;28;19908;-76
2022/02/15 10:35:35;;;;;;;;;;;10.40;95.60;;;;;;5080623;28;19919;-75
2022/02/15 10:38:01;;;;;;;;;;;10.50;95.40;;;;;;5080090;28;19915;-76
2022/02/15 10:40:27;;;;;;;;;;;10.60;95.20;;;;;;5077075;28;19954;-76
2022/02/15 10:42:53;;;;;;;;;;;10.60;95.00;;;;;;5080137;28;19909;-76
2022/02/15 10:45:18;;;;;;;;;;;10.60;95.20;;;;;;5080262;28;19928;-76
2022/02/15 10:47:46;;;;;;;;;;;10.70;95.30;;;;;;5080046;28;19908;-76
2022/02/15 10:50:13;;;;;;;;;;;10.80;95.20;;;;;;5080435;28;20318;-76
2022/02/15 10:52:39;;;;;;;;;;;10.90;94.90;;;;;;5079991;28;20818;-76
2022/02/15 10:55:06;;;;;;;;;;;11.10;94.40;;;;;;5079831;28;20338;-76
2022/02/15 10:57:32;;;;;;;;;;;11.00;94.30;;;;;;5080099;28;20315;-76
2022/02/15 10:59:59;;;;;;;;;;;11.10;94.20;;;;;;5080203;28;20325;-77
2022/02/15 11:02:26;;;;;;;;;;;11.10;93.70;;;;;;5079676;28;20003;-77
2022/02/15 11:04:52;;;;;;;;;;;11.20;93.50;;;;;;5079837;28;19908;-77
2022/02/15 11:07:19;;;;;;;;;;;11.20;93.20;;;;;;5079709;28;20433;-77
2022/02/15 11:09:52;;;;;;;;;;;11.30;93.00;;;;;;5079655;28;19915;-76
2022/02/15 11:12:25;;;;;;;;;;;11.30;92.60;;;;;;5066038;28;19982;-77
2022/02/15 11:14:52;;;;;;;;;;;11.30;92.60;;;;;;5079630;28;19943;-76
2022/02/15 11:17:18;;;;;;;;;;;11.30;92.90;;;;;;5079540;28;19916;-76
2022/02/15 11:19:44;;;;;;;;;;;11.40;92.50;;;;;;5079482;28;20387;-77
2022/02/15 11:22:19;;;;;;;;;;;11.40;92.60;;;;;;5079339;28;20358;-76
2022/02/15 11:24:45;;;;;;;;;;;11.50;92.50;;;;;;5077750;28;19916;-76
2022/02/15 11:27:14;;;;;;;;;;;11.70;91.30;;;;;;5079304;28;19909;-76
2022/02/15 11:29:48;;;;;;;;;;;11.60;91.60;;;;;;5079749;28;19916;-76
2022/02/15 11:32:21;;;;;;;;;;;11.70;91.20;;;;;;5066639;28;19916;-76
2022/02/15 11:34:47;;;;;;;;;;;11.70;90.80;;;;;;5079047;28;20394;-76
2022/02/15 11:37:17;;;;;;;;;;;11.70;90.60;;;;;;5077505;28;19908;-76
2022/02/15 11:39:43;;;;;;;;;;;11.70;90.60;;;;;;5074851;28;19963;-76
2022/02/15 11:42:18;;;;;;;;;;;11.70;90.60;;;;;;5079361;28;19908;-77
2022/02/15 11:44:44;;;;;;;;;;;11.70;90.30;;;;;;5078761;28;20295;-77
2022/02/15 11:47:19;;;;;;;;;;;11.70;90.60;;;;;;5079422;28;19915;-77
2022/02/15 11:49:52;;;;;;;;;;;11.70;90.20;;;;;;5078887;28;19944;-77
2022/02/15 11:52:18;;;;;;;;;;;11.70;90.10;;;;;;5078914;28;19944;-77
2022/02/15 11:54:43;;;;;;;;;;;11.70;90.40;;;;;;5078324;28;19919;-77
2022/02/15 11:57:09;;;;;;;;;;;11.80;90.40;;;;;;5078893;28;19923;-77
2022/02/15 11:59:35;;;;;;;;;;;11.80;90.60;;;;;;5079126;28;19909;-77
2022/02/15 12:02:02;;;;;;;;;;;11.90;90.40;;;;;;5079028;28;19995;-77
2022/02/15 12:04:29;;;;;;;;;;;12.00;90.40;;;;;;5077342;28;20050;-77
2022/02/15 12:06:57;;;;;;;;;;;12.00;90.20;;;;;;5078481;28;19913;-77
2022/02/15 12:09:30;;;;;;;;;;;12.10;89.40;;;;;;5078256;28;19916;-78
2022/02/15 12:11:56;;;;;;;;;;;12.20;89.50;;;;;;5073737;28;19931;-77
2022/02/15 12:14:23;;;;;;;;;;;12.20;89.20;;;;;;5065190;28;19916;-78
2022/02/15 12:16:50;;;;;;;;;;;12.30;89.80;;;;;;5077040;28;19934;-77
2022/02/15 12:19:29;;;;;;;;;;;12.30;89.70;;;;;;5077099;28;19937;-77
2022/02/15 12:21:59;;;;;;;;;;;12.40;88.30;;;;;;5078522;28;19908;-77
2022/02/15 12:24:26;;;;;;;;;;;12.50;88.40;;;;;;5078012;28;19934;-77
2022/02/15 12:26:52;;;;;;;;;;;12.60;88.20;;;;;;5078131;28;19908;-77
2022/02/15 12:29:18;;;;;;;;;;;12.70;87.00;;;;;;5078820;28;20015;-77
2022/02/15 12:31:44;;;;;;;;;;;12.80;86.80;;;;;;5078022;28;19951;-77
2022/02/15 12:34:10;;;;;;;;;;;12.80;85.30;;;;;;5078185;28;20001;-77
2022/02/15 12:36:36;;;;;;;;;;;12.80;85.20;;;;;;5078022;28;20298;-76
2022/02/15 12:39:03;;;;;;;;;;;12.80;84.50;;;;;;5077248;28;19908;-77
2022/02/15 12:41:33;;;;;;;;;;;12.70;84.30;;;;;;5074716;28;19915;-77
2022/02/15 12:43:59;;;;;;;;;;;12.70;85.00;;;;;;5078014;28;19948;-77
2022/02/15 12:46:25;;;;;;;;;;;12.60;85.00;;;;;;5077942;28;19912;-77
2022/02/15 12:48:51;;;;;;;;;;;12.60;85.20;;;;;;5077194;28;19916;-77
2022/02/15 12:51:18;;;;;;;;;;;12.60;85.60;;;;;;5077818;28;19908;-77
2022/02/15 12:53:48;;;;;;;;;;;12.60;84.70;;;;;;5077646;28;19913;-77
2022/02/15 12:56:13;;;;;;;;;;;12.60;84.20;;;;;;5077687;28;19912;-77
2022/02/15 12:58:43;;;;;;;;;;;12.60;84.40;;;;;;5076571;28;19919;-77
2022/02/15 13:01:08;;;;;;;;;;;12.60;84.20;;;;;;5077704;28;19908;-78
2022/02/15 13:03:34;;;;;;;;;;;12.60;84.20;;;;;;5077928;28;19939;-77
2022/02/15 13:06:07;;;;;;;;;;;12.60;85.10;;;;;;5077607;28;19923;-77
2022/02/15 13:08:42;;;;;;;;;;;12.50;85.60;;;;;;5077514;28;19909;-77
2022/02/15 13:11:08;;;;;;;;;;;12.50;85.60;;;;;;5072919;28;19908;-77
2022/02/15 13:13:36;;;;;;;;;;;12.50;84.20;;;;;;5071309;28;19916;-77
2022/02/15 13:16:03;;;;;;;;;;;12.50;84.60;;;;;;5064425;28;19922;-77
2022/02/15 13:18:29;;;;;;;;;;;12.50;84.60;;;;;;5077449;28;19909;-78
2022/02/15 13:20:54;;;;;;;;;;;12.40;85.40;;;;;;5077799;28;19915;-77
2022/02/15 13:23:20;;;;;;;;;;;12.30;85.00;;;;;;5077236;28;19912;-77
2022/02/15 13:25:50;;;;;;;;;;;12.30;85.30;;;;;;5077700;28;19908;-77
2022/02/15 13:28:17;;;;;;;;;;;12.20;85.50;;;;;;5077471;28;20326;-77
2022/02/15 13:30:43;;;;;;;;;;;12.20;85.90;;;;;;5077723;28;19915;-77
2022/02/15 13:33:13;;;;;;;;;;;12.20;86.20;;;;;;5077372;28;20260;-77
2022/02/15 13:35:40;;;;;;;;;;;12.20;86.20;;;;;;5077662;28;19916;-77
2022/02/15 13:38:06;;;;;;;;;;;12.20;85.70;;;;;;5077308;28;19908;-77
2022/02/15 13:40:32;;;;;;;;;;;12.20;85.50;;;;;;5073113;28;19915;-77
2022/02/15 13:42:58;;;;;;;;;;;12.20;85.70;;;;;;5077243;28;20359;-77
2022/02/15 13:45:24;;;;;;;;;;;12.20;86.10;;;;;;5077259;28;20452;-77
2022/02/15 13:47:50;;;;;;;;;;;12.20;86.00;;;;;;5077148;28;19912;-77
2022/02/15 13:50:16;;;;;;;;;;;12.20;85.30;;;;;;5077541;28;19942;-77
2022/02/15 13:52:42;;;;;;;;;;;12.20;85.70;;;;;;5076788;28;19908;-77
2022/02/15 13:55:10;;;;;;;;;;;12.20;85.70;;;;;;5077525;28;19920;-78
2022/02/15 13:57:36;;;;;;;;;;;12.20;85.80;;;;;;5076038;28;20383;-78
2022/02/15 14:00:05;;;;;;;;;;;12.10;86.00;;;;;;5078463;28;19915;-77
2022/02/15 14:02:31;;;;;;;;;;;12.10;86.40;;;;;;5080815;28;20401;-77
2022/02/15 14:04:57;;;;;;;;;;;12.10;87.10;;;;;;5080844;28;20386;-77
2022/02/15 14:07:23;;;;;;;;;;;12.10;86.60;;;;;;5080704;28;19909;-77
2022/02/15 14:09:49;;;;;;;;;;;12.10;86.60;;;;;;5080803;28;19908;-77
2022/02/15 14:12:18;;;;;;;;;;;12.10;86.60;;;;;;5067245;28;19916;-77
2022/02/15 14:14:44;;;;;;;;;;;12.20;87.00;;;;;;5080736;28;19995;-77
2022/02/15 14:17:37;;;;;;;;;;;12.10;86.70;;;;;;5080676;28;19951;-77
2022/02/15 14:19:55;;;;;;;;;;;12.10;86.30;;;;;;5080464;28;19908;-77
2022/02/15 14:22:21;;;;;;;;;;;12.10;86.90;;;;;;5080342;28;20778;-77
2022/02/15 14:24:46;;;;;;;;;;;12.10;86.40;;;;;;5080436;28;19908;-77
2022/02/15 14:27:12;;;;;;;;;;;12.10;86.10;;;;;;5080486;28;19908;-77